Time,TemperatureF,DewpointF,PressureIn,WindDirection,WindDirectionDegrees,WindSpeedMPH,WindSpeedGustMPH,Humidity,HourlyPrecipIn,Conditions,Clouds,dailyrainin,SoftwareType,DateUTC
2013-06-18 00:03:00,62.6,58.0,29.96,ESE,117,5.0,11.0,84,0.00,,,0.01,weatherlink.com 1.10,2013-06-18 05:03:00,
2013-06-18 00:18:00,62.2,57.0,29.97,SSE,157,3.0,11.0,83,0.00,,,0.01,weatherlink.com 1.10,2013-06-18 05:18:00,
2013-06-18 00:33:00,61.6,56.0,29.97,SE,146,8.0,13.0,83,0.00,,,0.01,weatherlink.com 1.10,2013-06-18 05:33:00,
2013-06-18 00:48:00,61.3,57.0,29.97,ESE,121,5.0,9.0,85,0.00,,,0.01,weatherlink.com 1.10,2013-06-18 05:48:00,
2013-06-18 01:03:00,60.8,57.0,29.97,SE,126,9.0,11.0,86,0.00,,,0.01,weatherlink.com 1.10,2013-06-18 06:03:00,
2013-06-18 01:19:00,60.5,56.0,29.97,ESE,113,8.0,12.0,86,0.00,,,0.01,weatherlink.com 1.10,2013-06-18 06:19:00,
2013-06-18 01:33:00,60.3,56.0,29.98,SSE,168,2.0,11.0,86,0.00,,,0.01,weatherlink.com 1.10,2013-06-18 06:33:00,
2013-06-18 01:48:00,60.0,56.0,29.98,South,172,1.0,6.0,86,0.00,,,0.01,weatherlink.com 1.10,2013-06-18 06:48:00,
2013-06-18 02:03:00,59.7,56.0,29.98,SE,144,1.0,8.0,87,0.00,,,0.01,weatherlink.com 1.10,2013-06-18 07:03:00,
2013-06-18 02:18:00,59.4,55.0,29.98,SE,132,3.0,9.0,85,0.00,,,0.01,weatherlink.com 1.10,2013-06-18 07:18:00,
2013-06-18 02:33:00,59.2,54.0,29.98,ESE,119,2.0,8.0,84,0.00,,,0.01,weatherlink.com 1.10,2013-06-18 07:33:00,
2013-06-18 02:48:00,58.9,53.0,29.98,SE,142,6.0,11.0,81,0.00,,,0.01,weatherlink.com 1.10,2013-06-18 07:48:00,
2013-06-18 03:03:00,58.7,53.0,29.99,SE,128,5.0,9.0,81,0.00,,,0.01,weatherlink.com 1.10,2013-06-18 08:03:00,
2013-06-18 03:18:00,58.4,53.0,29.99,ESE,109,4.0,8.0,81,0.00,,,0.01,weatherlink.com 1.10,2013-06-18 08:18:00,
2013-06-18 03:33:00,58.2,53.0,29.99,SSE,166,4.0,9.0,82,0.00,,,0.01,weatherlink.com 1.10,2013-06-18 08:33:00,
2013-06-18 03:48:00,57.8,53.0,30.00,SSE,148,6.0,11.0,83,0.00,,,0.01,weatherlink.com 1.10,2013-06-18 08:48:00,
2013-06-18 04:03:00,57.6,52.0,30.00,SE,128,7.0,11.0,80,0.00,,,0.01,weatherlink.com 1.10,2013-06-18 09:03:00,
2013-06-18 04:18:00,57.4,51.0,30.01,ESE,120,8.0,12.0,78,0.00,,,0.01,weatherlink.com 1.10,2013-06-18 09:18:00,
2013-06-18 04:33:00,56.9,50.0,30.01,SE,128,5.0,13.0,77,0.00,,,0.01,weatherlink.com 1.10,2013-06-18 09:33:00,
2013-06-18 04:48:00,55.9,47.0,30.02,East,96,7.0,11.0,72,0.00,,,0.01,weatherlink.com 1.10,2013-06-18 09:48:00,
2013-06-18 05:03:00,55.4,47.0,30.02,SE,146,4.0,9.0,74,0.00,,,0.01,weatherlink.com 1.10,2013-06-18 10:03:00,
2013-06-18 05:18:00,54.9,46.0,30.04,SE,128,5.0,9.0,72,0.00,,,0.01,weatherlink.com 1.10,2013-06-18 10:18:00,
2013-06-18 05:34:00,54.7,43.0,30.04,SE,142,2.0,13.0,66,0.00,,,0.01,weatherlink.com 1.10,2013-06-18 10:34:00,
2013-06-18 05:49:00,54.5,43.0,30.04,SE,125,5.0,12.0,66,0.00,,,0.01,weatherlink.com 1.10,2013-06-18 10:49:00,
2013-06-18 06:04:00,54.3,44.0,30.05,SE,131,6.0,9.0,68,0.00,,,0.01,weatherlink.com 1.10,2013-06-18 11:04:00,
2013-06-18 06:19:00,54.1,44.0,30.05,SE,131,4.0,12.0,68,0.00,,,0.01,weatherlink.com 1.10,2013-06-18 11:19:00,
2013-06-18 06:34:00,54.2,45.0,30.06,ESE,117,9.0,9.0,70,0.00,,,0.01,weatherlink.com 1.10,2013-06-18 11:34:00,
2013-06-18 06:49:00,54.0,44.0,30.06,ESE,105,3.0,11.0,70,0.00,,,0.01,weatherlink.com 1.10,2013-06-18 11:49:00,
2013-06-18 07:04:00,54.2,45.0,30.06,SE,133,3.0,11.0,70,0.00,,,0.00,weatherlink.com 1.10,2013-06-18 12:04:00,
2013-06-18 07:19:00,54.7,45.0,30.06,SE,136,6.0,9.0,70,0.00,,,0.00,weatherlink.com 1.10,2013-06-18 12:19:00,
2013-06-18 07:34:00,55.7,46.0,30.07,ESE,115,8.0,12.0,69,0.00,,,0.00,weatherlink.com 1.10,2013-06-18 12:34:00,
2013-06-18 07:49:00,56.7,47.0,30.07,SE,146,6.0,9.0,69,0.00,,,0.00,weatherlink.com 1.10,2013-06-18 12:49:00,
2013-06-18 08:04:00,58.2,48.0,30.07,ESE,111,4.0,9.0,69,0.00,,,0.00,weatherlink.com 1.10,2013-06-18 13:04:00,
2013-06-18 08:19:00,58.1,48.0,30.07,SSE,161,7.0,10.0,68,0.00,,,0.00,weatherlink.com 1.10,2013-06-18 13:19:00,
2013-06-18 08:34:00,58.0,48.0,30.08,ESE,115,10.0,12.0,70,0.00,,,0.00,weatherlink.com 1.10,2013-06-18 13:34:00,
2013-06-18 08:49:00,58.9,49.0,30.08,SE,125,3.0,11.0,71,0.00,,,0.00,weatherlink.com 1.10,2013-06-18 13:49:00,
2013-06-18 09:04:00,59.9,50.0,30.08,ESE,103,1.0,11.0,69,0.00,,,0.00,weatherlink.com 1.10,2013-06-18 14:04:00,
2013-06-18 09:19:00,60.2,50.0,30.08,SE,143,11.0,14.0,70,0.00,,,0.00,weatherlink.com 1.10,2013-06-18 14:19:00,
2013-06-18 09:34:00,61.5,51.0,30.08,East,95,7.0,13.0,68,0.00,,,0.00,weatherlink.com 1.10,2013-06-18 14:34:00,
2013-06-18 09:49:00,62.1,51.0,30.08,ESE,123,9.0,13.0,68,0.00,,,0.00,weatherlink.com 1.10,2013-06-18 14:49:00,
2013-06-18 10:04:00,63.0,52.0,30.08,ESE,115,8.0,11.0,67,0.00,,,0.00,weatherlink.com 1.10,2013-06-18 15:04:00,
2013-06-18 10:19:00,64.2,52.0,30.07,East,98,6.0,13.0,65,0.00,,,0.00,weatherlink.com 1.10,2013-06-18 15:19:00,
2013-06-18 10:35:00,64.6,51.0,30.07,ESE,108,11.0,13.0,61,0.00,,,0.00,weatherlink.com 1.10,2013-06-18 15:35:00,
2013-06-18 10:50:00,65.1,52.0,30.07,SSE,154,8.0,13.0,62,0.00,,,0.00,weatherlink.com 1.10,2013-06-18 15:50:00,
2013-06-18 11:05:00,65.5,51.0,30.07,SE,142,5.0,16.0,60,0.00,,,0.00,weatherlink.com 1.10,2013-06-18 16:05:00,
2013-06-18 11:20:00,66.5,52.0,30.07,SSW,208,5.0,12.0,59,0.00,,,0.00,weatherlink.com 1.10,2013-06-18 16:20:00,
2013-06-18 11:35:00,66.8,51.0,30.07,ESE,115,7.0,15.0,57,0.00,,,0.00,weatherlink.com 1.10,2013-06-18 16:35:00,
2013-06-18 11:50:00,67.1,50.0,30.07,East,92,11.0,16.0,55,0.00,,,0.00,weatherlink.com 1.10,2013-06-18 16:50:00,
2013-06-18 12:05:00,67.5,50.0,30.06,ESE,109,9.0,12.0,53,0.00,,,0.00,weatherlink.com 1.10,2013-06-18 17:05:00,
2013-06-18 12:20:00,67.9,49.0,30.06,SE,136,7.0,17.0,52,0.00,,,0.00,weatherlink.com 1.10,2013-06-18 17:20:00,
2013-06-18 12:35:00,69.2,50.0,30.06,ESE,121,8.0,12.0,50,0.00,,,0.00,weatherlink.com 1.10,2013-06-18 17:35:00,
2013-06-18 12:50:00,69.4,49.0,30.06,ESE,103,8.0,15.0,49,0.00,,,0.00,weatherlink.com 1.10,2013-06-18 17:50:00,
2013-06-18 13:05:00,70.7,50.0,30.05,SE,142,9.0,15.0,48,0.00,,,0.00,weatherlink.com 1.10,2013-06-18 18:05:00,
2013-06-18 13:20:00,70.2,49.0,30.05,ESE,105,11.0,13.0,47,0.00,,,0.00,weatherlink.com 1.10,2013-06-18 18:20:00,
2013-06-18 13:35:00,70.6,49.0,30.05,South,188,9.0,12.0,47,0.00,,,0.00,weatherlink.com 1.10,2013-06-18 18:35:00,
2013-06-18 13:50:00,71.1,46.0,30.06,SE,136,8.0,14.0,41,0.00,,,0.00,weatherlink.com 1.10,2013-06-18 18:50:00,
2013-06-18 14:05:00,71.9,48.0,30.06,ESE,105,1.0,10.0,43,0.00,,,0.00,weatherlink.com 1.10,2013-06-18 19:05:00,
2013-06-18 14:20:00,72.7,48.0,30.06,SSW,203,6.0,11.0,42,0.00,,,0.00,weatherlink.com 1.10,2013-06-18 19:20:00,
2013-06-18 14:35:00,73.2,47.0,30.06,SE,128,6.0,13.0,39,0.00,,,0.00,weatherlink.com 1.10,2013-06-18 19:35:00,
2013-06-18 14:50:00,72.9,48.0,30.06,ESE,105,7.0,11.0,41,0.00,,,0.00,weatherlink.com 1.10,2013-06-18 19:50:00,
2013-06-18 15:05:00,72.9,46.0,30.06,SE,142,6.0,12.0,39,0.00,,,0.00,weatherlink.com 1.10,2013-06-18 20:05:00,
2013-06-18 15:20:00,74.7,48.0,30.06,SSE,155,5.0,12.0,39,0.00,,,0.00,weatherlink.com 1.10,2013-06-18 20:20:00,
2013-06-18 15:35:00,73.7,47.0,30.05,SE,132,6.0,13.0,39,0.00,,,0.00,weatherlink.com 1.10,2013-06-18 20:35:00,
2013-06-18 15:50:00,73.2,48.0,30.05,SE,125,6.0,11.0,41,0.00,,,0.00,weatherlink.com 1.10,2013-06-18 20:50:00,
2013-06-18 16:05:00,73.7,47.0,30.05,ENE,77,2.0,9.0,39,0.00,,,0.00,weatherlink.com 1.10,2013-06-18 21:05:00,
2013-06-18 16:20:00,74.1,48.0,30.05,SSW,194,4.0,8.0,39,0.00,,,0.00,weatherlink.com 1.10,2013-06-18 21:20:00,
2013-06-18 16:35:00,75.0,48.0,30.05,East,84,2.0,10.0,38,0.00,,,0.00,weatherlink.com 1.10,2013-06-18 21:35:00,
2013-06-18 16:50:00,74.6,47.0,30.05,SE,130,6.0,10.0,38,0.00,,,0.00,weatherlink.com 1.10,2013-06-18 21:50:00,
2013-06-18 17:05:00,74.1,48.0,30.04,SE,138,11.0,12.0,39,0.00,,,0.00,weatherlink.com 1.10,2013-06-18 22:05:00,
2013-06-18 17:20:00,74.0,47.0,30.04,ENE,77,0.0,8.0,38,0.00,,,0.00,weatherlink.com 1.10,2013-06-18 22:20:00,
2013-06-18 17:35:00,73.6,46.0,30.04,South,182,0.0,9.0,38,0.00,,,0.00,weatherlink.com 1.10,2013-06-18 22:35:00,
2013-06-18 17:49:00,73.9,47.0,30.04,East,97,6.0,10.0,39,0.00,,,0.00,weatherlink.com 1.10,2013-06-18 22:49:00,
2013-06-18 18:04:00,73.4,48.0,30.04,South,184,3.0,9.0,40,0.00,,,0.00,weatherlink.com 1.10,2013-06-18 23:04:00,
2013-06-18 18:19:00,73.3,47.0,30.04,SE,138,7.0,10.0,40,0.00,,,0.00,weatherlink.com 1.10,2013-06-18 23:19:00,
2013-06-18 18:34:00,73.1,47.0,30.04,SSW,192,3.0,11.0,40,0.00,,,0.00,weatherlink.com 1.10,2013-06-18 23:34:00,
2013-06-18 18:49:00,73.3,47.0,30.04,SE,142,5.0,9.0,39,0.00,,,0.00,weatherlink.com 1.10,2013-06-18 23:49:00,
2013-06-18 19:04:00,72.3,47.0,30.04,South,171,5.0,11.0,41,0.00,,,0.00,weatherlink.com 1.10,2013-06-19 00:04:00,
2013-06-18 19:19:00,72.4,47.0,30.03,SE,134,5.0,11.0,41,0.00,,,0.00,weatherlink.com 1.10,2013-06-19 00:19:00,
2013-06-18 19:34:00,71.9,47.0,30.03,SSE,153,3.0,11.0,41,0.00,,,0.00,weatherlink.com 1.10,2013-06-19 00:34:00,
2013-06-18 19:49:00,71.6,48.0,30.04,South,180,3.0,8.0,43,0.00,,,0.00,weatherlink.com 1.10,2013-06-19 00:49:00,
2013-06-18 20:04:00,71.0,49.0,30.04,SE,134,5.0,9.0,45,0.00,,,0.00,weatherlink.com 1.10,2013-06-19 01:04:00,
2013-06-18 20:19:00,70.2,49.0,30.04,SSE,160,3.0,9.0,47,0.00,,,0.00,weatherlink.com 1.10,2013-06-19 01:19:00,
2013-06-18 20:34:00,69.5,49.0,30.05,South,173,4.0,8.0,49,0.00,,,0.00,weatherlink.com 1.10,2013-06-19 01:34:00,
2013-06-18 20:49:00,68.7,49.0,30.05,SSE,157,4.0,9.0,50,0.00,,,0.00,weatherlink.com 1.10,2013-06-19 01:49:00,
2013-06-18 21:04:00,67.6,49.0,30.04,SSE,152,3.0,9.0,51,0.00,,,0.00,weatherlink.com 1.10,2013-06-19 02:04:00,
2013-06-18 21:19:00,66.7,49.0,30.05,ESE,121,3.0,9.0,53,0.00,,,0.00,weatherlink.com 1.10,2013-06-19 02:19:00,
2013-06-18 21:34:00,65.9,48.0,30.05,SE,134,5.0,10.0,53,0.00,,,0.00,weatherlink.com 1.10,2013-06-19 02:34:00,
2013-06-18 21:49:00,65.4,49.0,30.06,SE,136,8.0,11.0,55,0.00,,,0.00,weatherlink.com 1.10,2013-06-19 02:49:00,
2013-06-18 22:04:00,64.7,49.0,30.06,South,177,4.0,9.0,57,0.00,,,0.00,weatherlink.com 1.10,2013-06-19 03:04:00,
2013-06-18 22:19:00,63.9,49.0,30.07,SSE,158,5.0,10.0,59,0.00,,,0.00,weatherlink.com 1.10,2013-06-19 03:19:00,
2013-06-18 22:34:00,63.5,50.0,30.07,SSE,168,3.0,9.0,61,0.00,,,0.00,weatherlink.com 1.10,2013-06-19 03:34:00,
2013-06-18 22:49:00,62.8,49.0,30.07,South,169,5.0,9.0,62,0.00,,,0.00,weatherlink.com 1.10,2013-06-19 03:49:00,
2013-06-18 23:04:00,62.0,50.0,30.07,SSE,161,5.0,6.0,64,0.00,,,0.00,weatherlink.com 1.10,2013-06-19 04:04:00,
2013-06-18 23:19:00,61.2,49.0,30.07,South,177,3.0,7.0,65,0.00,,,0.00,weatherlink.com 1.10,2013-06-19 04:19:00,
2013-06-18 23:34:00,60.7,50.0,30.07,SSW,192,4.0,6.0,67,0.00,,,0.00,weatherlink.com 1.10,2013-06-19 04:34:00,
2013-06-18 23:49:00,60.8,50.0,30.07,SSE,167,4.0,7.0,68,0.00,,,0.00,weatherlink.com 1.10,2013-06-19 04:49:00,